Terminal Aerodrome Forecast
Issued by NWS

Home | Current Version | Previous Version | Graphics & Text | Print | Product List | Glossary Off
Versions: 1 2 3 4 5 6 7 8 9 10 11 12 13 14

000
FTUS43 KDDC 212017 AAC
TAFHYS
TAF AMD
KHYS 212017Z 2120/2218 03013KT P6SM -SHRA OVC050
     FM212200 02013G20KT P6SM -SHRA OVC025
     FM220200 01012G18KT 2SM BR VCSH OVC015
     FM220800 35011KT P6SM BKN020
     FM221000 36011KT P6SM BKN035=

USA.gov is the U.S. government's official web portal to all federal, state and local government web resources and services.